createdAt,value
2022-10-13T00:00:13.888Z,99.90
2022-10-13T00:02:40.281Z,99.90
2022-10-13T00:05:06.674Z,99.90
2022-10-13T00:07:33.052Z,99.90
2022-10-13T00:09:59.449Z,99.90
2022-10-13T00:12:25.827Z,99.90
2022-10-13T00:14:52.201Z,99.90
2022-10-13T00:17:18.606Z,99.90
2022-10-13T00:19:44.984Z,99.90
2022-10-13T00:22:11.385Z,99.90
2022-10-13T00:24:37.776Z,99.90
2022-10-13T00:27:04.160Z,99.90
2022-10-13T00:29:30.589Z,99.90
2022-10-13T00:31:56.966Z,99.90
2022-10-13T00:34:23.360Z,99.90
2022-10-13T00:36:49.732Z,99.90
2022-10-13T00:39:16.144Z,99.90
2022-10-13T00:41:42.520Z,99.90
2022-10-13T00:46:47.973Z,99.90
2022-10-13T00:49:14.417Z,99.90
2022-10-13T00:51:40.865Z,99.90
2022-10-13T00:54:07.232Z,99.90
2022-10-13T00:56:33.631Z,99.90
2022-10-13T00:59:00.031Z,99.90
2022-10-13T01:01:26.415Z,99.90
2022-10-13T01:03:52.921Z,99.90
2022-10-13T01:06:23.413Z,99.90
2022-10-13T01:08:50.287Z,99.90
2022-10-13T01:11:16.685Z,99.90
2022-10-13T01:13:43.091Z,99.90
2022-10-13T01:16:09.485Z,99.90
2022-10-13T01:18:35.882Z,99.90
2022-10-13T01:21:02.266Z,99.90
2022-10-13T01:23:28.732Z,99.90
2022-10-13T01:25:55.133Z,99.90
2022-10-13T01:28:21.579Z,99.90
2022-10-13T01:30:48.025Z,99.90
2022-10-13T01:33:14.443Z,99.90
2022-10-13T01:35:40.889Z,99.90
2022-10-13T01:38:07.273Z,99.90
2022-10-13T01:40:33.677Z,99.90
2022-10-13T01:43:00.088Z,99.90
2022-10-13T01:45:26.479Z,99.90
2022-10-13T01:47:52.873Z,99.90
2022-10-13T01:50:19.287Z,99.90
2022-10-13T01:52:45.707Z,99.90
2022-10-13T01:55:12.092Z,99.90
2022-10-13T01:57:38.465Z,99.90
2022-10-13T02:00:04.887Z,99.90
2022-10-13T02:02:31.268Z,99.90
2022-10-13T02:04:57.734Z,99.90
2022-10-13T02:07:24.117Z,99.90
2022-10-13T02:09:50.503Z,99.90
2022-10-13T02:12:17.411Z,99.90
2022-10-13T02:14:43.959Z,99.90
2022-10-13T02:17:10.389Z,99.90
2022-10-13T02:19:36.835Z,99.90
2022-10-13T02:22:03.238Z,99.90
2022-10-13T02:24:29.637Z,99.90
2022-10-13T02:26:56.035Z,99.90
2022-10-13T02:29:22.445Z,99.90
2022-10-13T02:31:48.841Z,99.90
2022-10-13T02:34:15.223Z,99.90
2022-10-13T02:36:41.650Z,99.90
2022-10-13T02:39:08.037Z,99.90
2022-10-13T02:41:34.447Z,99.90
2022-10-13T02:44:00.833Z,99.90
2022-10-13T02:46:27.210Z,99.90
2022-10-13T02:48:53.623Z,99.90
2022-10-13T02:51:20.012Z,99.90
2022-10-13T02:53:46.422Z,99.90
2022-10-13T02:56:12.806Z,99.90
2022-10-13T02:58:39.286Z,99.90
2022-10-13T03:01:05.729Z,99.90
2022-10-13T03:03:32.169Z,99.90
2022-10-13T03:05:58.556Z,99.90
2022-10-13T03:08:24.953Z,99.90
2022-10-13T03:10:51.341Z,99.90
2022-10-13T03:13:17.732Z,99.90
2022-10-13T03:15:44.114Z,99.90
2022-10-13T03:18:10.504Z,99.90
2022-10-13T03:20:36.883Z,99.90
2022-10-13T03:23:03.287Z,99.90
2022-10-13T03:25:29.654Z,99.90
2022-10-13T03:27:56.074Z,99.90
2022-10-13T03:30:22.455Z,99.90
2022-10-13T03:32:48.838Z,99.90
2022-10-13T03:35:15.238Z,99.90
2022-10-13T03:37:41.618Z,99.90
2022-10-13T03:40:08.032Z,99.90
2022-10-13T03:42:34.414Z,99.90
2022-10-13T03:45:00.816Z,99.90
2022-10-13T03:47:27.208Z,99.90
2022-10-13T03:49:53.614Z,99.90
2022-10-13T03:52:20.250Z,99.90
2022-10-13T03:54:46.937Z,99.90
2022-10-13T03:57:13.336Z,99.90
2022-10-13T03:59:39.755Z,99.90
2022-10-13T04:02:06.167Z,99.90
2022-10-13T04:04:32.605Z,99.90
2022-10-13T04:06:59.012Z,99.90
2022-10-13T04:09:25.430Z,99.90
2022-10-13T04:11:51.819Z,99.90
2022-10-13T04:14:18.199Z,99.90
2022-10-13T04:16:44.585Z,99.90
2022-10-13T04:19:10.985Z,99.90
2022-10-13T04:21:37.384Z,99.90
2022-10-13T04:24:03.794Z,99.90
2022-10-13T04:26:30.218Z,99.90
2022-10-13T04:28:56.630Z,99.90
2022-10-13T04:31:23.023Z,99.90
2022-10-13T04:33:49.410Z,99.90
2022-10-13T04:36:15.978Z,99.90
2022-10-13T04:38:42.365Z,99.90
2022-10-13T04:41:08.786Z,99.90
2022-10-13T04:43:35.196Z,99.90
2022-10-13T04:46:01.599Z,99.90
2022-10-13T04:48:27.993Z,99.90
2022-10-13T04:50:54.379Z,99.90
2022-10-13T04:53:20.771Z,99.90
2022-10-13T04:55:47.177Z,99.90
2022-10-13T04:58:13.561Z,99.90
2022-10-13T05:00:40.021Z,99.90
2022-10-13T05:03:06.470Z,99.90
2022-10-13T05:05:32.861Z,99.90
2022-10-13T05:07:59.233Z,99.90
2022-10-13T05:10:25.645Z,99.90
2022-10-13T05:12:52.052Z,99.90
2022-10-13T05:15:18.473Z,99.90
2022-10-13T05:17:44.878Z,99.90
2022-10-13T05:20:11.273Z,99.90
2022-10-13T05:22:37.679Z,99.90
2022-10-13T05:25:04.156Z,99.90
2022-10-13T05:27:30.555Z,99.90
2022-10-13T05:29:56.935Z,99.90
2022-10-13T05:32:23.396Z,99.90
2022-10-13T05:34:49.820Z,99.90
2022-10-13T05:37:16.219Z,99.90
2022-10-13T05:39:42.594Z,99.90
2022-10-13T05:42:08.993Z,99.90
2022-10-13T05:44:35.392Z,99.90
2022-10-13T05:47:07.188Z,99.90
2022-10-13T05:49:33.973Z,99.90
2022-10-13T05:52:00.392Z,99.90
2022-10-13T05:54:26.899Z,99.90
2022-10-13T05:56:53.310Z,99.90
2022-10-13T05:59:23.363Z,99.90
2022-10-13T06:01:52.606Z,99.90
2022-10-13T06:04:19.001Z,99.90
2022-10-13T06:06:45.403Z,99.90
2022-10-13T06:09:11.876Z,99.90
2022-10-13T06:11:38.266Z,99.90
2022-10-13T06:14:04.699Z,99.90
2022-10-13T06:16:31.133Z,99.90
2022-10-13T06:18:57.561Z,99.90
2022-10-13T06:21:23.944Z,99.90
2022-10-13T06:23:50.361Z,99.90
2022-10-13T06:26:16.760Z,99.90
2022-10-13T06:28:46.340Z,99.90
2022-10-13T06:31:16.198Z,99.90
2022-10-13T06:33:42.585Z,99.90
2022-10-13T06:36:08.987Z,99.90
2022-10-13T06:38:35.415Z,99.90
2022-10-13T06:41:01.827Z,99.90
2022-10-13T06:43:34.555Z,99.90
2022-10-13T06:46:06.241Z,99.90
2022-10-13T06:48:32.617Z,99.90
2022-10-13T06:50:59.017Z,99.90
2022-10-13T06:53:25.419Z,99.90
2022-10-13T06:55:52.681Z,99.90
2022-10-13T06:58:19.131Z,99.90
2022-10-13T07:00:45.590Z,99.90
2022-10-13T07:03:12.015Z,99.90
2022-10-13T07:05:38.475Z,99.90
2022-10-13T07:08:04.908Z,99.90
2022-10-13T07:10:31.325Z,99.90
2022-10-13T07:12:57.727Z,99.90
2022-10-13T07:15:24.138Z,99.90
2022-10-13T07:17:50.526Z,99.90
2022-10-13T07:20:16.951Z,99.90
2022-10-13T07:22:43.445Z,99.90
2022-10-13T07:25:09.852Z,99.90
2022-10-13T07:27:36.261Z,99.90
2022-10-13T07:30:02.653Z,99.90
2022-10-13T07:32:29.083Z,99.90
2022-10-13T07:34:55.542Z,99.90
2022-10-13T07:37:22.456Z,99.90
2022-10-13T07:39:49.150Z,99.90
2022-10-13T07:42:15.589Z,99.90
2022-10-13T07:44:42.027Z,99.90
2022-10-13T07:47:08.431Z,99.90
2022-10-13T07:49:34.821Z,99.90
2022-10-13T07:52:01.238Z,99.90
2022-10-13T07:54:27.697Z,99.90
2022-10-13T07:56:54.112Z,99.90
2022-10-13T07:59:20.500Z,99.90
2022-10-13T08:01:47.003Z,99.90
2022-10-13T08:04:13.422Z,99.90
2022-10-13T08:09:07.149Z,99.90
2022-10-13T08:11:33.547Z,99.90
2022-10-13T08:13:59.962Z,99.90
2022-10-13T08:16:26.358Z,99.90
2022-10-13T08:18:52.790Z,99.90
2022-10-13T08:24:05.546Z,99.90
2022-10-13T08:26:31.940Z,99.90
2022-10-13T08:29:16.885Z,99.90
2022-10-13T08:31:44.939Z,99.90
2022-10-13T08:34:11.728Z,99.90
2022-10-13T08:36:38.113Z,99.90
2022-10-13T08:39:04.536Z,99.90
2022-10-13T08:41:30.945Z,99.90
2022-10-13T08:44:40.907Z,99.90
2022-10-13T08:46:43.773Z,99.90
2022-10-13T08:49:10.302Z,99.90
2022-10-13T08:51:36.694Z,99.90
2022-10-13T08:54:03.101Z,99.90
2022-10-13T08:56:29.509Z,99.90
2022-10-13T08:58:55.928Z,99.90
2022-10-13T09:01:22.353Z,99.90
2022-10-13T09:03:48.793Z,99.90
2022-10-13T09:06:15.198Z,99.90
2022-10-13T09:08:41.599Z,99.90
2022-10-13T09:11:07.999Z,99.90
2022-10-13T09:13:34.437Z,99.90
2022-10-13T09:16:00.858Z,99.90
2022-10-13T09:18:27.257Z,99.90
2022-10-13T09:20:53.703Z,99.90
2022-10-13T09:23:20.085Z,99.90
2022-10-13T09:25:46.616Z,99.90
2022-10-13T09:28:13.063Z,99.90
2022-10-13T09:30:39.508Z,99.90
2022-10-13T09:33:05.889Z,99.90
2022-10-13T09:35:32.302Z,99.90
2022-10-13T09:37:58.699Z,99.90
2022-10-13T09:40:25.107Z,99.90
2022-10-13T09:42:51.563Z,99.90
2022-10-13T09:45:17.975Z,99.90
2022-10-13T09:47:44.360Z,99.90
2022-10-13T09:50:10.772Z,99.90
2022-10-13T09:52:37.149Z,99.90
2022-10-13T09:55:05.119Z,99.90
2022-10-13T09:57:31.532Z,99.90
2022-10-13T09:59:57.998Z,99.90
2022-10-13T10:02:26.569Z,99.90
2022-10-13T10:04:53.788Z,99.90
2022-10-13T10:07:20.427Z,99.90
2022-10-13T10:09:47.174Z,99.90
2022-10-13T10:12:13.557Z,99.70
2022-10-13T10:14:39.953Z,99.40
2022-10-13T10:17:06.355Z,98.80
2022-10-13T10:19:32.811Z,97.80
2022-10-13T10:21:59.262Z,97.40
2022-10-13T10:24:25.633Z,97.70
2022-10-13T10:26:52.069Z,98.00
2022-10-13T10:29:18.509Z,98.50
2022-10-13T10:31:44.949Z,99.00
2022-10-13T10:34:14.887Z,98.10
2022-10-13T10:36:42.021Z,97.50
2022-10-13T10:39:08.402Z,96.10
2022-10-13T10:41:34.815Z,94.10
2022-10-13T10:44:01.203Z,94.00
2022-10-13T10:46:27.618Z,92.30
2022-10-13T10:48:54.043Z,91.10
2022-10-13T10:51:20.479Z,89.40
2022-10-13T10:53:46.892Z,87.50
2022-10-13T10:56:13.350Z,87.80
2022-10-13T10:58:39.730Z,87.90
2022-10-13T11:01:06.135Z,86.50
2022-10-13T11:03:32.520Z,85.80
2022-10-13T11:05:58.923Z,82.50
2022-10-13T11:08:25.318Z,80.60
2022-10-13T11:10:51.723Z,80.80
2022-10-13T11:13:18.135Z,82.60
2022-10-13T11:15:44.597Z,82.80
2022-10-13T11:18:11.023Z,84.00
2022-10-13T11:20:37.445Z,86.40
2022-10-13T11:23:03.853Z,87.30
2022-10-13T11:25:30.247Z,87.90
2022-10-13T11:27:56.660Z,87.70
2022-10-13T11:30:23.223Z,86.80
2022-10-13T11:32:49.668Z,85.40
2022-10-13T11:35:16.073Z,85.50
2022-10-13T11:37:43.934Z,83.70
2022-10-13T11:40:14.619Z,82.80
2022-10-13T11:42:41.038Z,83.00
2022-10-13T11:45:07.454Z,82.60
2022-10-13T11:47:33.855Z,81.30
2022-10-13T11:50:00.306Z,80.50
2022-10-13T11:52:26.699Z,79.00
2022-10-13T11:54:53.106Z,76.60
2022-10-13T11:57:19.482Z,76.90
2022-10-13T11:59:45.908Z,77.20
2022-10-13T12:02:12.402Z,77.20
2022-10-13T12:04:40.589Z,78.00
2022-10-13T12:07:10.529Z,78.50
2022-10-13T12:09:36.955Z,79.10
2022-10-13T12:12:03.369Z,79.10
2022-10-13T12:14:29.807Z,79.10
2022-10-13T12:19:27.528Z,78.50
2022-10-13T12:21:53.938Z,77.90
2022-10-13T12:24:20.366Z,77.40
2022-10-13T12:26:46.792Z,76.00
2022-10-13T12:29:13.222Z,76.40
2022-10-13T12:31:39.644Z,75.80
2022-10-13T12:34:06.090Z,76.00
2022-10-13T12:36:32.484Z,75.30
2022-10-13T12:38:58.878Z,74.90
2022-10-13T12:41:25.272Z,74.90
2022-10-13T12:43:51.674Z,74.20
2022-10-13T12:46:18.111Z,73.40
2022-10-13T12:48:44.587Z,73.80
2022-10-13T12:51:10.982Z,73.20
2022-10-13T12:53:37.397Z,73.20
2022-10-13T12:56:03.801Z,73.20
2022-10-13T12:58:30.254Z,72.80
2022-10-13T13:00:56.740Z,72.90
2022-10-13T13:03:23.192Z,72.90
2022-10-13T13:05:52.929Z,72.70
2022-10-13T13:08:21.565Z,72.10
2022-10-13T13:10:48.053Z,72.10
2022-10-13T13:13:14.455Z,72.60
2022-10-13T13:15:40.922Z,72.90
2022-10-13T13:18:07.306Z,72.60
2022-10-13T13:20:33.728Z,71.80
2022-10-13T13:23:00.146Z,70.50
2022-10-13T13:25:26.586Z,69.10
2022-10-13T13:27:52.973Z,67.80
2022-10-13T13:30:19.383Z,66.80
2022-10-13T13:32:45.766Z,67.30
2022-10-13T13:35:12.177Z,66.30
2022-10-13T13:37:38.564Z,66.80
2022-10-13T13:40:04.996Z,67.80
2022-10-13T13:42:31.390Z,68.20
2022-10-13T13:44:57.810Z,69.10
2022-10-13T13:47:24.194Z,69.40
2022-10-13T13:49:50.637Z,69.30
2022-10-13T13:52:17.180Z,69.40
2022-10-13T13:54:43.676Z,69.30
2022-10-13T13:57:10.118Z,69.20
2022-10-13T13:59:36.506Z,69.20
2022-10-13T14:02:03.016Z,69.20
2022-10-13T14:04:29.480Z,69.20
2022-10-13T14:06:55.898Z,69.00
2022-10-13T14:09:22.288Z,69.20
2022-10-13T14:11:48.694Z,69.40
2022-10-13T14:14:15.080Z,70.40
2022-10-13T14:16:41.493Z,71.00
2022-10-13T14:19:07.902Z,71.70
2022-10-13T14:21:34.338Z,71.70
2022-10-13T14:24:00.762Z,72.50
2022-10-13T14:26:27.198Z,73.20
2022-10-13T14:28:53.616Z,73.80
2022-10-13T14:31:20.059Z,74.10
2022-10-13T14:33:49.708Z,74.20
2022-10-13T14:36:18.480Z,74.40
2022-10-13T14:38:44.878Z,74.40
2022-10-13T14:41:11.311Z,74.20
2022-10-13T14:43:37.696Z,74.10
2022-10-13T14:46:04.094Z,74.30
2022-10-13T14:48:30.471Z,74.40
2022-10-13T14:50:56.892Z,74.40
2022-10-13T14:53:23.317Z,74.10
2022-10-13T14:55:49.696Z,73.30
2022-10-13T14:58:16.108Z,71.40
2022-10-13T15:00:42.484Z,69.30
2022-10-13T15:03:08.907Z,67.00
2022-10-13T15:05:35.321Z,64.90
2022-10-13T15:08:01.721Z,63.60
2022-10-13T15:10:28.097Z,63.10
2022-10-13T15:12:54.512Z,64.30
2022-10-13T15:15:20.915Z,65.10
2022-10-13T15:17:47.322Z,66.50
2022-10-13T15:20:13.712Z,67.60
2022-10-13T15:22:40.122Z,68.70
2022-10-13T15:25:06.499Z,69.70
2022-10-13T15:27:34.268Z,71.00
2022-10-13T15:30:02.288Z,72.30
2022-10-13T15:32:28.689Z,73.70
2022-10-13T15:34:55.069Z,75.20
2022-10-13T15:37:21.473Z,76.60
2022-10-13T15:39:47.863Z,78.30
2022-10-13T15:42:14.267Z,79.80
2022-10-13T15:45:08.235Z,80.90
2022-10-13T15:47:27.039Z,82.00
2022-10-13T15:49:53.425Z,83.30
2022-10-13T15:52:20.104Z,84.80
2022-10-13T15:54:46.803Z,85.10
2022-10-13T15:57:13.225Z,86.50
2022-10-13T15:59:39.614Z,86.80
2022-10-13T16:02:05.995Z,87.70
2022-10-13T16:04:37.128Z,88.30
2022-10-13T16:07:03.934Z,88.60
2022-10-13T16:09:30.355Z,89.80
2022-10-13T16:11:56.734Z,90.00
2022-10-13T16:14:23.188Z,90.40
2022-10-13T16:16:49.574Z,90.60
2022-10-13T16:19:16.006Z,91.10
2022-10-13T16:21:42.387Z,91.50
2022-10-13T16:24:08.812Z,91.80
2022-10-13T16:26:35.207Z,92.70
2022-10-13T16:29:01.651Z,92.90
2022-10-13T16:31:28.161Z,93.10
2022-10-13T16:33:54.564Z,93.80
2022-10-13T16:36:20.970Z,94.40
2022-10-13T16:38:47.605Z,95.30
2022-10-13T16:41:13.987Z,95.40
2022-10-13T16:43:40.373Z,96.10
2022-10-13T16:46:06.763Z,96.90
2022-10-13T16:48:33.208Z,97.10
2022-10-13T16:50:59.585Z,97.50
2022-10-13T16:53:25.952Z,98.00
2022-10-13T16:55:52.347Z,98.30
2022-10-13T16:58:18.734Z,99.30
2022-10-13T17:00:45.212Z,99.60
2022-10-13T17:03:11.678Z,99.80
2022-10-13T17:05:38.091Z,99.90
2022-10-13T17:08:04.501Z,99.90
2022-10-13T17:10:30.909Z,99.90
2022-10-13T17:12:57.345Z,99.90
2022-10-13T17:15:23.765Z,99.90
2022-10-13T17:17:50.143Z,99.90
2022-10-13T17:20:16.548Z,99.90
2022-10-13T17:22:42.935Z,99.90
2022-10-13T17:25:09.325Z,99.90
2022-10-13T17:27:35.708Z,99.90
2022-10-13T17:30:02.105Z,99.90
2022-10-13T17:32:28.509Z,99.90
2022-10-13T17:34:54.900Z,99.90
2022-10-13T17:37:21.692Z,99.90
2022-10-13T17:39:48.228Z,99.90
2022-10-13T17:42:14.621Z,99.90
2022-10-13T17:44:41.012Z,99.90
2022-10-13T17:47:07.400Z,99.90
2022-10-13T17:49:33.819Z,99.90
2022-10-13T17:52:00.265Z,99.90
2022-10-13T17:54:26.668Z,99.90
2022-10-13T17:56:53.072Z,99.90
2022-10-13T17:59:19.437Z,99.90
2022-10-13T18:01:46.000Z,99.90
2022-10-13T18:04:12.512Z,99.90
2022-10-13T18:06:39.260Z,99.90
2022-10-13T18:09:05.675Z,99.90
2022-10-13T18:11:32.078Z,99.90
2022-10-13T18:13:58.461Z,99.90
2022-10-13T18:16:24.862Z,99.90
2022-10-13T18:18:51.230Z,99.90
2022-10-13T18:21:17.626Z,99.90
2022-10-13T18:23:44.013Z,99.90
2022-10-13T18:26:10.409Z,99.90
2022-10-13T18:28:36.838Z,99.90
2022-10-13T18:31:03.248Z,99.90
2022-10-13T18:33:29.637Z,99.90
2022-10-13T18:35:56.029Z,99.90
2022-10-13T18:38:22.406Z,99.90
2022-10-13T18:40:48.795Z,99.90
2022-10-13T18:43:15.160Z,99.90
2022-10-13T18:45:41.598Z,99.90
2022-10-13T18:48:07.979Z,99.90
2022-10-13T18:50:34.391Z,99.90
2022-10-13T18:53:00.782Z,99.90
2022-10-13T18:55:27.172Z,99.90
2022-10-13T18:57:53.561Z,99.90
2022-10-13T19:00:19.980Z,99.90
2022-10-13T19:02:46.365Z,99.90
2022-10-13T19:05:13.093Z,99.90
2022-10-13T19:07:39.498Z,99.90
2022-10-13T19:10:06.157Z,99.90
2022-10-13T19:12:32.792Z,99.90
2022-10-13T19:14:59.347Z,99.90
2022-10-13T19:17:25.765Z,99.90
2022-10-13T19:19:52.154Z,99.90
2022-10-13T19:22:18.551Z,99.90
2022-10-13T19:24:44.942Z,99.90
2022-10-13T19:27:11.354Z,99.90
2022-10-13T19:29:37.741Z,99.90
2022-10-13T19:32:04.138Z,99.90
2022-10-13T19:34:30.532Z,99.90
2022-10-13T19:36:56.936Z,99.90
2022-10-13T19:39:23.338Z,99.90
2022-10-13T19:41:49.741Z,99.90
2022-10-13T19:44:16.587Z,99.90
2022-10-13T19:46:43.025Z,99.90
2022-10-13T19:49:09.401Z,99.90
2022-10-13T19:51:36.956Z,99.90
2022-10-13T19:54:03.359Z,99.90
2022-10-13T19:56:29.762Z,99.90
2022-10-13T19:58:56.147Z,99.90
2022-10-13T20:01:22.555Z,99.90
2022-10-13T20:03:48.966Z,99.90
2022-10-13T20:06:15.371Z,99.90
2022-10-13T20:08:41.757Z,99.90
2022-10-13T20:11:08.145Z,99.90
2022-10-13T20:13:34.537Z,99.90
2022-10-13T20:16:00.906Z,99.90
2022-10-13T20:18:27.298Z,99.90
2022-10-13T20:20:53.687Z,99.90
2022-10-13T20:23:20.082Z,99.90
2022-10-13T20:25:46.462Z,99.90
2022-10-13T20:28:12.951Z,99.90
2022-10-13T20:30:39.418Z,99.90
2022-10-13T20:33:05.831Z,99.90
2022-10-13T20:35:33.625Z,99.90
2022-10-13T20:38:00.062Z,99.90
2022-10-13T20:40:26.459Z,99.90
2022-10-13T20:42:52.858Z,99.90
2022-10-13T20:45:19.248Z,99.90
2022-10-13T20:47:45.693Z,99.90
2022-10-13T20:50:12.095Z,99.90
2022-10-13T20:52:38.506Z,99.90
2022-10-13T20:55:04.908Z,99.90
2022-10-13T20:57:31.313Z,99.90
2022-10-13T20:59:57.727Z,99.90
2022-10-13T21:02:24.251Z,99.90
2022-10-13T21:04:50.635Z,99.90
2022-10-13T21:07:17.029Z,99.90
2022-10-13T21:09:43.420Z,99.90
2022-10-13T21:12:09.849Z,99.90
2022-10-13T21:14:36.230Z,99.90
2022-10-13T21:17:02.648Z,99.90
2022-10-13T21:19:29.046Z,99.90
2022-10-13T21:21:55.449Z,99.90
2022-10-13T21:24:21.850Z,99.90
2022-10-13T21:26:48.229Z,99.90
2022-10-13T21:29:14.622Z,99.90
2022-10-13T21:31:41.002Z,99.90
2022-10-13T21:34:07.404Z,99.90
2022-10-13T21:36:33.794Z,99.90
2022-10-13T21:39:00.193Z,99.90
2022-10-13T21:41:26.573Z,99.90
2022-10-13T21:43:53.162Z,99.90
2022-10-13T21:46:19.540Z,99.90
2022-10-13T21:48:46.015Z,99.90
2022-10-13T21:51:12.397Z,99.90
2022-10-13T21:53:38.787Z,99.90
2022-10-13T21:56:05.164Z,99.90
2022-10-13T21:58:31.577Z,99.90
2022-10-13T22:00:58.044Z,99.90
2022-10-13T22:03:24.513Z,99.90
2022-10-13T22:05:50.890Z,99.90
2022-10-13T22:08:17.295Z,99.90
2022-10-13T22:10:43.667Z,99.90
2022-10-13T22:13:10.063Z,99.90
2022-10-13T22:15:36.438Z,99.90
2022-10-13T22:18:02.839Z,99.90
2022-10-13T22:20:29.229Z,99.90
2022-10-13T22:22:55.632Z,99.90
2022-10-13T22:25:22.037Z,99.90
2022-10-13T22:27:48.436Z,99.90
2022-10-13T22:30:14.820Z,99.90
2022-10-13T22:32:41.205Z,99.90
2022-10-13T22:35:07.591Z,99.90
2022-10-13T22:37:33.960Z,99.90
2022-10-13T22:40:00.358Z,99.90
2022-10-13T22:42:26.735Z,99.90
2022-10-13T22:44:53.147Z,99.90
2022-10-13T22:47:19.834Z,99.90
2022-10-13T22:49:46.410Z,99.90
2022-10-13T22:52:12.864Z,99.90
2022-10-13T22:54:39.262Z,99.90
2022-10-13T22:57:05.651Z,99.90
2022-10-13T22:59:32.062Z,99.90
2022-10-13T23:01:58.471Z,99.90
2022-10-13T23:04:24.858Z,99.90
2022-10-13T23:06:51.224Z,99.90
2022-10-13T23:09:17.617Z,99.90
2022-10-13T23:11:44.001Z,99.90
2022-10-13T23:14:10.392Z,99.90
2022-10-13T23:16:36.784Z,99.90
2022-10-13T23:19:03.183Z,99.90
2022-10-13T23:21:29.561Z,99.90
2022-10-13T23:23:55.961Z,99.90
2022-10-13T23:26:22.341Z,99.90
2022-10-13T23:28:48.779Z,99.90
2022-10-13T23:31:15.197Z,99.90
2022-10-13T23:33:41.599Z,99.90
2022-10-13T23:36:08.242Z,99.90
2022-10-13T23:38:34.640Z,99.90
2022-10-13T23:41:01.027Z,99.90
2022-10-13T23:43:27.421Z,99.90
2022-10-13T23:45:53.857Z,99.90
2022-10-13T23:48:20.249Z,99.90
2022-10-13T23:50:46.629Z,99.90
2022-10-13T23:53:13.001Z,99.90
2022-10-13T23:55:39.384Z,99.90
2022-10-13T23:58:05.762Z,99.90
